sensor_id;sensor_type;location;lat;lon;timestamp;pressure;altitude;pressure_sealevel;temperature;humidity
9746;BME280;4912;50.836;12.958;2024-02-16T00:01:54;97800.97;;;12.46;87.10
9746;BME280;4912;50.836;12.958;2024-02-16T00:04:33;97800.50;;;12.48;87.03
9746;BME280;4912;50.836;12.958;2024-02-16T00:07:06;97795.13;;;12.44;87.05
9746;BME280;4912;50.836;12.958;2024-02-16T00:09:37;97793.91;;;12.45;86.84
9746;BME280;4912;50.836;12.958;2024-02-16T00:12:08;97784.53;;;12.43;87.21
9746;BME280;4912;50.836;12.958;2024-02-16T00:14:39;97788.06;;;12.43;87.34
9746;BME280;4912;50.836;12.958;2024-02-16T00:17:13;97790.25;;;12.39;87.61
9746;BME280;4912;50.836;12.958;2024-02-16T00:19:44;97786.53;;;12.42;87.25
9746;BME280;4912;50.836;12.958;2024-02-16T00:22:17;97784.72;;;12.39;87.69
9746;BME280;4912;50.836;12.958;2024-02-16T00:24:51;97783.94;;;12.39;88.22
9746;BME280;4912;50.836;12.958;2024-02-16T00:27:22;97772.09;;;12.38;88.29
9746;BME280;4912;50.836;12.958;2024-02-16T00:29:54;97760.22;;;12.38;89.26
9746;BME280;4912;50.836;12.958;2024-02-16T00:32:25;97762.59;;;12.45;88.93
9746;BME280;4912;50.836;12.958;2024-02-16T00:35:00;97752.66;;;12.38;89.82
9746;BME280;4912;50.836;12.958;2024-02-16T00:37:34;97751.91;;;12.38;90.89
9746;BME280;4912;50.836;12.958;2024-02-16T00:40:05;97750.72;;;12.44;90.62
9746;BME280;4912;50.836;12.958;2024-02-16T00:42:38;97752.47;;;12.42;91.10
9746;BME280;4912;50.836;12.958;2024-02-16T00:45:09;97746.72;;;12.45;91.27
9746;BME280;4912;50.836;12.958;2024-02-16T00:47:40;97752.56;;;12.47;91.50
9746;BME280;4912;50.836;12.958;2024-02-16T00:50:12;97750.81;;;12.50;91.85
9746;BME280;4912;50.836;12.958;2024-02-16T00:52:45;97745.41;;;12.41;92.96
9746;BME280;4912;50.836;12.958;2024-02-16T00:55:15;97743.94;;;12.45;92.99
9746;BME280;4912;50.836;12.958;2024-02-16T00:57:53;97744.31;;;12.53;92.45
9746;BME280;4912;50.836;12.958;2024-02-16T01:00:27;97738.78;;;12.53;92.90
9746;BME280;4912;50.836;12.958;2024-02-16T01:03:00;97740.56;;;12.56;92.68
9746;BME280;4912;50.836;12.958;2024-02-16T01:05:33;97740.84;;;12.58;92.90
9746;BME280;4912;50.836;12.958;2024-02-16T01:08:09;97740.94;;;12.63;92.94
9746;BME280;4912;50.836;12.958;2024-02-16T01:10:39;97738.16;;;12.63;92.88
9746;BME280;4912;50.836;12.958;2024-02-16T01:13:10;97735.25;;;12.72;92.23
9746;BME280;4912;50.836;12.958;2024-02-16T01:15:43;97732.00;;;12.74;91.83
9746;BME280;4912;50.836;12.958;2024-02-16T01:18:17;97733.91;;;12.68;92.08
9746;BME280;4912;50.836;12.958;2024-02-16T01:20:47;97724.28;;;12.63;92.69
9746;BME280;4912;50.836;12.958;2024-02-16T01:23:21;97720.53;;;12.66;92.42
9746;BME280;4912;50.836;12.958;2024-02-16T01:25:53;97711.31;;;12.75;91.89
9746;BME280;4912;50.836;12.958;2024-02-16T01:28:29;97708.06;;;12.77;91.61
9746;BME280;4912;50.836;12.958;2024-02-16T01:31:02;97721.34;;;12.72;91.96
9746;BME280;4912;50.836;12.958;2024-02-16T01:33:36;97707.78;;;12.75;91.92
9746;BME280;4912;50.836;12.958;2024-02-16T01:36:08;97706.75;;;12.72;92.20
9746;BME280;4912;50.836;12.958;2024-02-16T01:38:41;97716.50;;;12.67;92.29
9746;BME280;4912;50.836;12.958;2024-02-16T01:41:11;97730.28;;;12.77;91.97
9746;BME280;4912;50.836;12.958;2024-02-16T01:43:42;97718.19;;;12.80;91.35
9746;BME280;4912;50.836;12.958;2024-02-16T01:46:18;97718.75;;;12.84;91.17
9746;BME280;4912;50.836;12.958;2024-02-16T01:48:56;97720.84;;;12.89;90.73
9746;BME280;4912;50.836;12.958;2024-02-16T01:51:34;97720.06;;;12.88;90.54
9746;BME280;4912;50.836;12.958;2024-02-16T01:54:08;97716.88;;;12.75;91.24
9746;BME280;4912;50.836;12.958;2024-02-16T01:56:43;97712.38;;;12.78;91.26
9746;BME280;4912;50.836;12.958;2024-02-16T01:59:14;97712.22;;;12.87;90.81
9746;BME280;4912;50.836;12.958;2024-02-16T02:01:52;97712.09;;;12.96;90.06
9746;BME280;4912;50.836;12.958;2024-02-16T02:04:24;97712.34;;;12.98;89.83
9746;BME280;4912;50.836;12.958;2024-02-16T02:06:57;97717.44;;;12.99;89.67
9746;BME280;4912;50.836;12.958;2024-02-16T02:09:33;97715.34;;;12.94;89.73
9746;BME280;4912;50.836;12.958;2024-02-16T02:12:05;97713.34;;;12.95;89.60
9746;BME280;4912;50.836;12.958;2024-02-16T02:14:39;97722.00;;;13.02;89.38
9746;BME280;4912;50.836;12.958;2024-02-16T02:17:12;97718.47;;;13.02;89.43
9746;BME280;4912;50.836;12.958;2024-02-16T02:19:44;97710.41;;;13.04;89.07
9746;BME280;4912;50.836;12.958;2024-02-16T02:22:22;97717.97;;;13.03;89.26
9746;BME280;4912;50.836;12.958;2024-02-16T02:24:58;97710.41;;;13.04;89.03
9746;BME280;4912;50.836;12.958;2024-02-16T02:27:31;97712.91;;;13.02;89.17
9746;BME280;4912;50.836;12.958;2024-02-16T02:30:03;97702.22;;;12.95;89.06
9746;BME280;4912;50.836;12.958;2024-02-16T02:32:35;97699.59;;;12.86;89.29
9746;BME280;4912;50.836;12.958;2024-02-16T02:35:06;97702.84;;;12.84;89.41
9746;BME280;4912;50.836;12.958;2024-02-16T02:37:43;97706.13;;;12.83;89.24
9746;BME280;4912;50.836;12.958;2024-02-16T02:40:23;97706.81;;;12.78;89.87
9746;BME280;4912;50.836;12.958;2024-02-16T02:42:54;97696.94;;;12.77;89.72
9746;BME280;4912;50.836;12.958;2024-02-16T02:45:27;97699.50;;;12.80;89.76
9746;BME280;4912;50.836;12.958;2024-02-16T02:47:58;97699.03;;;12.82;89.37
9746;BME280;4912;50.836;12.958;2024-02-16T02:50:28;97693.47;;;12.82;89.40
9746;BME280;4912;50.836;12.958;2024-02-16T02:53:01;97700.97;;;12.76;89.40
9746;BME280;4912;50.836;12.958;2024-02-16T02:55:32;97696.94;;;12.56;90.50
9746;BME280;4912;50.836;12.958;2024-02-16T02:58:08;97704.78;;;12.58;90.76
9746;BME280;4912;50.836;12.958;2024-02-16T03:00:41;97702.47;;;12.56;90.71
9746;BME280;4912;50.836;12.958;2024-02-16T03:03:21;97704.69;;;12.52;90.74
9746;BME280;4912;50.836;12.958;2024-02-16T03:05:54;97704.06;;;12.43;91.76
9746;BME280;4912;50.836;12.958;2024-02-16T03:08:27;97697.84;;;12.33;92.04
9746;BME280;4912;50.836;12.958;2024-02-16T03:11:00;97700.91;;;12.35;92.30
9746;BME280;4912;50.836;12.958;2024-02-16T03:13:33;97700.06;;;12.29;92.70
9746;BME280;4912;50.836;12.958;2024-02-16T03:16:04;97702.28;;;12.25;92.78
9746;BME280;4912;50.836;12.958;2024-02-16T03:18:35;97706.50;;;12.20;93.10
9746;BME280;4912;50.836;12.958;2024-02-16T03:21:06;97713.00;;;12.17;93.08
9746;BME280;4912;50.836;12.958;2024-02-16T03:23:40;97705.16;;;12.16;93.27
9746;BME280;4912;50.836;12.958;2024-02-16T03:26:15;97710.25;;;12.17;93.01
9746;BME280;4912;50.836;12.958;2024-02-16T03:28:46;97713.78;;;12.18;92.96
9746;BME280;4912;50.836;12.958;2024-02-16T03:31:17;97715.31;;;12.19;93.10
9746;BME280;4912;50.836;12.958;2024-02-16T03:33:48;97711.69;;;12.13;93.34
9746;BME280;4912;50.836;12.958;2024-02-16T03:36:19;97711.94;;;12.15;93.20
9746;BME280;4912;50.836;12.958;2024-02-16T03:38:52;97716.47;;;12.12;93.18
9746;BME280;4912;50.836;12.958;2024-02-16T03:41:23;97721.59;;;12.19;93.05
9746;BME280;4912;50.836;12.958;2024-02-16T03:43:59;97712.63;;;12.24;92.50
9746;BME280;4912;50.836;12.958;2024-02-16T03:46:30;97711.94;;;12.29;92.16
9746;BME280;4912;50.836;12.958;2024-02-16T03:49:00;97707.25;;;12.36;91.56
9746;BME280;4912;50.836;12.958;2024-02-16T03:51:33;97712.56;;;12.39;91.10
9746;BME280;4912;50.836;12.958;2024-02-16T03:54:08;97706.06;;;12.42;90.86
9746;BME280;4912;50.836;12.958;2024-02-16T03:56:47;97700.78;;;12.44;90.62
9746;BME280;4912;50.836;12.958;2024-02-16T03:59:24;97695.75;;;12.43;90.30
9746;BME280;4912;50.836;12.958;2024-02-16T04:01:55;97700.53;;;12.42;90.17
9746;BME280;4912;50.836;12.958;2024-02-16T04:04:26;97696.47;;;12.43;89.95
9746;BME280;4912;50.836;12.958;2024-02-16T04:06:59;97695.25;;;12.44;89.63
9746;BME280;4912;50.836;12.958;2024-02-16T04:09:34;97697.25;;;12.44;89.32
9746;BME280;4912;50.836;12.958;2024-02-16T04:12:08;97701.47;;;12.39;89.44
9746;BME280;4912;50.836;12.958;2024-02-16T04:14:38;97711.34;;;12.40;89.48
9746;BME280;4912;50.836;12.958;2024-02-16T04:17:09;97711.88;;;12.44;89.40
9746;BME280;4912;50.836;12.958;2024-02-16T04:19:44;97703.56;;;12.44;89.26
9746;BME280;4912;50.836;12.958;2024-02-16T04:22:17;97707.59;;;12.43;88.94
9746;BME280;4912;50.836;12.958;2024-02-16T04:24:55;97710.66;;;12.45;89.07
9746;BME280;4912;50.836;12.958;2024-02-16T04:27:32;97713.13;;;12.43;88.78
9746;BME280;4912;50.836;12.958;2024-02-16T04:30:13;97713.72;;;12.47;88.49
9746;BME280;4912;50.836;12.958;2024-02-16T04:32:46;97709.88;;;12.45;88.13
9746;BME280;4912;50.836;12.958;2024-02-16T04:35:17;97714.94;;;12.46;88.01
9746;BME280;4912;50.836;12.958;2024-02-16T04:37:49;97718.75;;;12.49;87.80
9746;BME280;4912;50.836;12.958;2024-02-16T04:40:23;97713.72;;;12.47;87.34
9746;BME280;4912;50.836;12.958;2024-02-16T04:42:54;97709.13;;;12.44;87.22
9746;BME280;4912;50.836;12.958;2024-02-16T04:45:24;97696.28;;;12.47;87.44
9746;BME280;4912;50.836;12.958;2024-02-16T04:47:57;97690.94;;;12.43;86.92
9746;BME280;4912;50.836;12.958;2024-02-16T04:50:28;97690.66;;;12.41;86.99
9746;BME280;4912;50.836;12.958;2024-02-16T04:53:01;97696.47;;;12.43;86.44
9746;BME280;4912;50.836;12.958;2024-02-16T04:55:43;97703.38;;;12.48;85.97
9746;BME280;4912;50.836;12.958;2024-02-16T04:58:14;97706.41;;;12.50;85.35
9746;BME280;4912;50.836;12.958;2024-02-16T05:00:46;97706.34;;;12.44;85.35
9746;BME280;4912;50.836;12.958;2024-02-16T05:03:19;97701.06;;;12.46;84.91
9746;BME280;4912;50.836;12.958;2024-02-16T05:05:50;97708.16;;;12.47;84.58
9746;BME280;4912;50.836;12.958;2024-02-16T05:08:29;97690.28;;;12.48;84.51
9746;BME280;4912;50.836;12.958;2024-02-16T05:11:05;97694.97;;;12.42;84.47
9746;BME280;4912;50.836;12.958;2024-02-16T05:13:36;97697.75;;;12.42;84.40
9746;BME280;4912;50.836;12.958;2024-02-16T05:16:09;97696.22;;;12.41;84.33
9746;BME280;4912;50.836;12.958;2024-02-16T05:18:40;97693.22;;;12.45;83.89
9746;BME280;4912;50.836;12.958;2024-02-16T05:21:10;97692.28;;;12.48;83.82
9746;BME280;4912;50.836;12.958;2024-02-16T05:23:41;97686.66;;;12.42;83.95
9746;BME280;4912;50.836;12.958;2024-02-16T05:26:14;97688.75;;;12.47;83.70
9746;BME280;4912;50.836;12.958;2024-02-16T05:28:47;97683.88;;;12.42;83.51
9746;BME280;4912;50.836;12.958;2024-02-16T05:31:20;97683.88;;;12.42;83.83
9746;BME280;4912;50.836;12.958;2024-02-16T05:33:52;97675.13;;;12.49;83.29
9746;BME280;4912;50.836;12.958;2024-02-16T05:36:22;97678.88;;;12.46;82.87
9746;BME280;4912;50.836;12.958;2024-02-16T05:38:59;97676.19;;;12.52;84.59
9746;BME280;4912;50.836;12.958;2024-02-16T05:41:39;97671.41;;;12.52;83.23
9746;BME280;4912;50.836;12.958;2024-02-16T05:44:09;97678.19;;;12.51;82.51
9746;BME280;4912;50.836;12.958;2024-02-16T05:46:40;97674.47;;;12.54;82.02
9746;BME280;4912;50.836;12.958;2024-02-16T05:49:22;97659.75;;;12.48;81.73
9746;BME280;4912;50.836;12.958;2024-02-16T05:51:55;97656.75;;;12.52;81.93
9746;BME280;4912;50.836;12.958;2024-02-16T05:54:45;97660.84;;;12.56;81.38
9746;BME280;4912;50.836;12.958;2024-02-16T05:57:20;97670.16;;;12.53;81.17
9746;BME280;4912;50.836;12.958;2024-02-16T05:59:54;97680.00;;;12.54;80.84
9746;BME280;4912;50.836;12.958;2024-02-16T06:02:27;97692.97;;;12.63;80.61
9746;BME280;4912;50.836;12.958;2024-02-16T06:05:00;97686.13;;;12.58;80.15
9746;BME280;4912;50.836;12.958;2024-02-16T06:07:30;97683.81;;;12.57;79.78
9746;BME280;4912;50.836;12.958;2024-02-16T06:10:02;97690.75;;;12.67;79.52
9746;BME280;4912;50.836;12.958;2024-02-16T06:12:41;97702.44;;;12.71;79.49
9746;BME280;4912;50.836;12.958;2024-02-16T06:15:15;97707.78;;;12.75;79.45
9746;BME280;4912;50.836;12.958;2024-02-16T06:17:48;97707.22;;;12.70;80.60
9746;BME280;4912;50.836;12.958;2024-02-16T06:20:21;97702.16;;;12.69;80.34
9746;BME280;4912;50.836;12.958;2024-02-16T06:22:52;97716.75;;;12.49;80.43
9746;BME280;4912;50.836;12.958;2024-02-16T06:25:22;97709.69;;;12.48;80.40
9746;BME280;4912;50.836;12.958;2024-02-16T06:27:55;97716.75;;;12.49;80.67
9746;BME280;4912;50.836;12.958;2024-02-16T06:30:26;97720.50;;;12.46;80.83
9746;BME280;4912;50.836;12.958;2024-02-16T06:32:56;97722.44;;;12.40;81.06
9746;BME280;4912;50.836;12.958;2024-02-16T06:35:29;97720.34;;;12.35;81.15
9746;BME280;4912;50.836;12.958;2024-02-16T06:38:03;97722.66;;;12.37;81.31
9746;BME280;4912;50.836;12.958;2024-02-16T06:40:34;97713.13;;;12.43;81.10
9746;BME280;4912;50.836;12.958;2024-02-16T06:43:06;97720.78;;;12.48;80.65
9746;BME280;4912;50.836;12.958;2024-02-16T06:45:37;97720.09;;;12.53;80.56
9746;BME280;4912;50.836;12.958;2024-02-16T06:48:07;97711.28;;;12.55;79.55
9746;BME280;4912;50.836;12.958;2024-02-16T06:50:38;97704.31;;;12.59;79.58
9746;BME280;4912;50.836;12.958;2024-02-16T06:53:11;97708.16;;;12.67;78.70
9746;BME280;4912;50.836;12.958;2024-02-16T06:55:41;97709.00;;;12.73;78.39
9746;BME280;4912;50.836;12.958;2024-02-16T06:58:14;97710.44;;;12.84;78.27
9746;BME280;4912;50.836;12.958;2024-02-16T07:00:44;97701.66;;;12.91;77.80
9746;BME280;4912;50.836;12.958;2024-02-16T07:03:18;97705.50;;;12.93;77.31
9746;BME280;4912;50.836;12.958;2024-02-16T07:05:50;97703.00;;;12.95;76.60
9746;BME280;4912;50.836;12.958;2024-02-16T07:08:23;97701.53;;;13.00;76.57
9746;BME280;4912;50.836;12.958;2024-02-16T07:10:53;97703.91;;;13.07;75.75
9746;BME280;4912;50.836;12.958;2024-02-16T07:13:26;97706.78;;;13.13;75.57
9746;BME280;4912;50.836;12.958;2024-02-16T07:15:59;97705.31;;;13.17;75.10
9746;BME280;4912;50.836;12.958;2024-02-16T07:18:30;97705.59;;;13.19;74.81
9746;BME280;4912;50.836;12.958;2024-02-16T07:21:01;97704.38;;;13.26;74.72
9746;BME280;4912;50.836;12.958;2024-02-16T07:23:31;97707.00;;;13.35;74.56
9746;BME280;4912;50.836;12.958;2024-02-16T07:26:03;97706.38;;;13.45;74.04
9746;BME280;4912;50.836;12.958;2024-02-16T07:28:40;97709.63;;;13.44;73.56
9746;BME280;4912;50.836;12.958;2024-02-16T07:31:11;97696.06;;;13.51;73.26
9746;BME280;4912;50.836;12.958;2024-02-16T07:33:42;97702.16;;;13.56;72.88
9746;BME280;4912;50.836;12.958;2024-02-16T07:36:16;97697.41;;;13.62;72.63
9746;BME280;4912;50.836;12.958;2024-02-16T07:38:47;97704.84;;;13.70;72.28
9746;BME280;4912;50.836;12.958;2024-02-16T07:41:17;97711.56;;;13.84;71.29
9746;BME280;4912;50.836;12.958;2024-02-16T07:43:50;97701.72;;;13.88;71.13
9746;BME280;4912;50.836;12.958;2024-02-16T07:46:21;97694.72;;;13.99;70.90
9746;BME280;4912;50.836;12.958;2024-02-16T07:48:51;97694.59;;;14.13;70.34
9746;BME280;4912;50.836;12.958;2024-02-16T07:51:22;97692.66;;;14.25;69.51
9746;BME280;4912;50.836;12.958;2024-02-16T07:54:11;97691.00;;;14.39;68.93
9746;BME280;4912;50.836;12.958;2024-02-16T07:56:41;97696.16;;;14.57;67.88
9746;BME280;4912;50.836;12.958;2024-02-16T07:59:12;97697.22;;;15.19;66.13
9746;BME280;4912;50.836;12.958;2024-02-16T08:01:42;97701.41;;;15.79;64.01
9746;BME280;4912;50.836;12.958;2024-02-16T08:04:13;97702.72;;;15.83;61.49
9746;BME280;4912;50.836;12.958;2024-02-16T08:06:45;97696.38;;;16.11;61.68
9746;BME280;4912;50.836;12.958;2024-02-16T08:09:18;97706.25;;;16.39;60.51
9746;BME280;4912;50.836;12.958;2024-02-16T08:11:49;97704.47;;;16.42;60.26
9746;BME280;4912;50.836;12.958;2024-02-16T08:14:19;97710.81;;;16.48;59.15
9746;BME280;4912;50.836;12.958;2024-02-16T08:16:52;97710.06;;;16.42;58.78
9746;BME280;4912;50.836;12.958;2024-02-16T08:19:37;97711.59;;;16.49;58.31
9746;BME280;4912;50.836;12.958;2024-02-16T08:22:08;97708.25;;;16.61;58.50
9746;BME280;4912;50.836;12.958;2024-02-16T08:24:41;97706.22;;;16.56;58.66
9746;BME280;4912;50.836;12.958;2024-02-16T08:27:13;97702.16;;;16.52;58.30
9746;BME280;4912;50.836;12.958;2024-02-16T08:29:43;97698.59;;;16.51;58.60
9746;BME280;4912;50.836;12.958;2024-02-16T08:32:14;97693.00;;;16.57;57.87
9746;BME280;4912;50.836;12.958;2024-02-16T08:34:47;97700.41;;;16.65;57.69
9746;BME280;4912;50.836;12.958;2024-02-16T08:37:18;97695.03;;;16.67;57.60
9746;BME280;4912;50.836;12.958;2024-02-16T08:39:51;97705.22;;;16.65;57.24
9746;BME280;4912;50.836;12.958;2024-02-16T08:42:21;97700.63;;;16.78;56.89
9746;BME280;4912;50.836;12.958;2024-02-16T08:44:53;97702.06;;;17.02;56.53
9746;BME280;4912;50.836;12.958;2024-02-16T08:47:27;97703.56;;;17.14;55.20
9746;BME280;4912;50.836;12.958;2024-02-16T08:49:57;97689.16;;;17.86;53.54
9746;BME280;4912;50.836;12.958;2024-02-16T08:52:28;97688.53;;;18.59;51.41
9746;BME280;4912;50.836;12.958;2024-02-16T08:55:01;97685.50;;;18.27;51.97
9746;BME280;4912;50.836;12.958;2024-02-16T08:57:31;97687.75;;;18.34;51.75
9746;BME280;4912;50.836;12.958;2024-02-16T09:00:02;97684.56;;;20.23;46.55
9746;BME280;4912;50.836;12.958;2024-02-16T09:02:40;97689.56;;;21.61;43.46
9746;BME280;4912;50.836;12.958;2024-02-16T09:05:10;97693.97;;;21.70;42.08
9746;BME280;4912;50.836;12.958;2024-02-16T09:07:41;97692.03;;;20.65;44.30
9746;BME280;4912;50.836;12.958;2024-02-16T09:10:15;97692.19;;;20.09;45.83
9746;BME280;4912;50.836;12.958;2024-02-16T09:12:46;97693.22;;;19.93;46.43
9746;BME280;4912;50.836;12.958;2024-02-16T09:15:18;97689.25;;;19.51;47.29
9746;BME280;4912;50.836;12.958;2024-02-16T09:17:48;97691.09;;;19.05;48.42
9746;BME280;4912;50.836;12.958;2024-02-16T09:20:20;97691.53;;;18.66;49.22
9746;BME280;4912;50.836;12.958;2024-02-16T09:22:52;97683.59;;;18.40;50.27
9746;BME280;4912;50.836;12.958;2024-02-16T09:25:26;97690.94;;;18.19;50.42
9746;BME280;4912;50.836;12.958;2024-02-16T09:27:57;97698.22;;;17.98;50.64
9746;BME280;4912;50.836;12.958;2024-02-16T09:30:33;97691.94;;;17.86;51.40
9746;BME280;4912;50.836;12.958;2024-02-16T09:33:04;97692.03;;;17.75;50.93
9746;BME280;4912;50.836;12.958;2024-02-16T09:35:34;97699.94;;;17.71;50.99
9746;BME280;4912;50.836;12.958;2024-02-16T09:38:05;97696.91;;;17.69;50.49
9746;BME280;4912;50.836;12.958;2024-02-16T09:40:41;97705.25;;;17.75;50.65
9746;BME280;4912;50.836;12.958;2024-02-16T09:43:21;97708.09;;;17.69;50.69
9746;BME280;4912;50.836;12.958;2024-02-16T09:45:54;97714.25;;;17.62;50.88
9746;BME280;4912;50.836;12.958;2024-02-16T09:48:31;97711.84;;;17.83;50.90
9746;BME280;4912;50.836;12.958;2024-02-16T09:51:01;97705.09;;;17.97;49.88
9746;BME280;4912;50.836;12.958;2024-02-16T09:53:32;97705.00;;;18.68;49.55
9746;BME280;4912;50.836;12.958;2024-02-16T09:56:07;97698.47;;;19.08;47.12
9746;BME280;4912;50.836;12.958;2024-02-16T09:58:38;97707.09;;;19.29;48.02
9746;BME280;4912;50.836;12.958;2024-02-16T10:01:16;97703.09;;;19.25;47.28
9746;BME280;4912;50.836;12.958;2024-02-16T10:03:51;97720.03;;;19.38;47.22
9746;BME280;4912;50.836;12.958;2024-02-16T10:06:21;97710.59;;;19.35;46.50
9746;BME280;4912;50.836;12.958;2024-02-16T10:08:56;97705.66;;;19.22;47.48
9746;BME280;4912;50.836;12.958;2024-02-16T10:11:31;97707.66;;;19.03;47.52
9746;BME280;4912;50.836;12.958;2024-02-16T10:14:02;97711.81;;;18.97;47.58
9746;BME280;4912;50.836;12.958;2024-02-16T10:16:35;97708.03;;;18.94;47.57
9746;BME280;4912;50.836;12.958;2024-02-16T10:19:07;97713.13;;;18.71;47.62
9746;BME280;4912;50.836;12.958;2024-02-16T10:21:44;97707.72;;;18.55;48.50
9746;BME280;4912;50.836;12.958;2024-02-16T10:24:14;97702.69;;;18.72;49.02
9746;BME280;4912;50.836;12.958;2024-02-16T10:26:49;97704.16;;;18.78;49.03
9746;BME280;4912;50.836;12.958;2024-02-16T10:29:20;97697.16;;;18.85;48.85
9746;BME280;4912;50.836;12.958;2024-02-16T10:31:52;97697.56;;;19.19;48.14
9746;BME280;4912;50.836;12.958;2024-02-16T10:34:24;97697.31;;;20.24;46.21
9746;BME280;4912;50.836;12.958;2024-02-16T10:37:00;97703.28;;;21.18;43.92
9746;BME280;4912;50.836;12.958;2024-02-16T10:39:31;97702.72;;;21.80;42.03
9746;BME280;4912;50.836;12.958;2024-02-16T10:42:05;97696.47;;;22.08;40.60
9746;BME280;4912;50.836;12.958;2024-02-16T10:44:37;97700.78;;;22.50;40.81
9746;BME280;4912;50.836;12.958;2024-02-16T10:47:10;97688.28;;;22.87;39.71
9746;BME280;4912;50.836;12.958;2024-02-16T10:49:41;97685.25;;;23.13;39.13
9746;BME280;4912;50.836;12.958;2024-02-16T10:52:12;97684.22;;;23.32;38.92
9746;BME280;4912;50.836;12.958;2024-02-16T10:54:47;97679.53;;;23.42;38.11
9746;BME280;4912;50.836;12.958;2024-02-16T10:57:25;97671.31;;;23.15;38.56
9746;BME280;4912;50.836;12.958;2024-02-16T11:00:06;97671.63;;;23.04;38.86
9746;BME280;4912;50.836;12.958;2024-02-16T11:02:52;97677.25;;;23.40;38.35
9746;BME280;4912;50.836;12.958;2024-02-16T11:05:34;97669.50;;;23.33;37.26
9746;BME280;4912;50.836;12.958;2024-02-16T11:08:11;97667.66;;;23.36;36.51
9746;BME280;4912;50.836;12.958;2024-02-16T11:10:53;97666.66;;;22.90;37.27
9746;BME280;4912;50.836;12.958;2024-02-16T11:13:31;97676.75;;;22.57;37.68
9746;BME280;4912;50.836;12.958;2024-02-16T11:16:03;97674.06;;;22.02;38.54
9746;BME280;4912;50.836;12.958;2024-02-16T11:18:41;97670.53;;;21.54;39.97
9746;BME280;4912;50.836;12.958;2024-02-16T11:21:16;97673.41;;;21.28;40.71
9746;BME280;4912;50.836;12.958;2024-02-16T11:23:47;97680.88;;;21.73;39.43
9746;BME280;4912;50.836;12.958;2024-02-16T11:26:20;97675.06;;;22.54;38.53
9746;BME280;4912;50.836;12.958;2024-02-16T11:28:56;97680.00;;;22.61;37.07
9746;BME280;4912;50.836;12.958;2024-02-16T11:31:26;97667.72;;;22.09;39.09
9746;BME280;4912;50.836;12.958;2024-02-16T11:33:57;97665.03;;;22.24;39.31
9746;BME280;4912;50.836;12.958;2024-02-16T11:36:28;97661.03;;;22.40;38.47
9746;BME280;4912;50.836;12.958;2024-02-16T11:39:03;97656.75;;;24.21;37.08
9746;BME280;4912;50.836;12.958;2024-02-16T11:41:43;97650.91;;;25.83;34.58
9746;BME280;4912;50.836;12.958;2024-02-16T11:44:16;97647.50;;;26.76;31.79
9746;BME280;4912;50.836;12.958;2024-02-16T11:46:47;97632.13;;;27.65;30.74
9746;BME280;4912;50.836;12.958;2024-02-16T11:49:18;97642.38;;;27.78;29.81
9746;BME280;4912;50.836;12.958;2024-02-16T11:51:51;97650.25;;;27.96;29.36
9746;BME280;4912;50.836;12.958;2024-02-16T11:54:22;97643.16;;;27.88;28.70
9746;BME280;4912;50.836;12.958;2024-02-16T11:56:57;97644.31;;;28.48;28.10
9746;BME280;4912;50.836;12.958;2024-02-16T11:59:31;97637.09;;;29.51;27.40
9746;BME280;4912;50.836;12.958;2024-02-16T12:02:01;97646.94;;;29.98;26.60
9746;BME280;4912;50.836;12.958;2024-02-16T12:04:35;97652.84;;;29.61;26.15
9746;BME280;4912;50.836;12.958;2024-02-16T12:07:20;97652.69;;;29.59;25.84
9746;BME280;4912;50.836;12.958;2024-02-16T12:09:54;97648.78;;;29.64;26.44
9746;BME280;4912;50.836;12.958;2024-02-16T12:12:30;97646.81;;;29.67;26.11
9746;BME280;4912;50.836;12.958;2024-02-16T12:15:05;97644.25;;;29.81;26.70
9746;BME280;4912;50.836;12.958;2024-02-16T12:17:37;97654.69;;;30.07;26.42
9746;BME280;4912;50.836;12.958;2024-02-16T12:20:12;97655.69;;;28.84;27.57
9746;BME280;4912;50.836;12.958;2024-02-16T12:22:45;97649.38;;;27.77;29.30
9746;BME280;4912;50.836;12.958;2024-02-16T12:25:21;97656.06;;;27.10;29.72
9746;BME280;4912;50.836;12.958;2024-02-16T12:27:51;97659.66;;;27.28;29.65
9746;BME280;4912;50.836;12.958;2024-02-16T12:30:28;97645.81;;;28.13;28.98
9746;BME280;4912;50.836;12.958;2024-02-16T12:32:59;97652.59;;;28.63;27.79
9746;BME280;4912;50.836;12.958;2024-02-16T12:35:30;97651.78;;;28.80;27.83
9746;BME280;4912;50.836;12.958;2024-02-16T12:38:01;97650.09;;;28.21;28.63
9746;BME280;4912;50.836;12.958;2024-02-16T12:40:32;97654.19;;;27.57;29.13
9746;BME280;4912;50.836;12.958;2024-02-16T12:43:03;97661.72;;;26.76;30.94
9746;BME280;4912;50.836;12.958;2024-02-16T12:45:38;97658.34;;;26.03;31.34
9746;BME280;4912;50.836;12.958;2024-02-16T12:48:11;97656.22;;;25.31;32.37
9746;BME280;4912;50.836;12.958;2024-02-16T12:50:42;97649.75;;;24.83;33.66
9746;BME280;4912;50.836;12.958;2024-02-16T12:53:14;97662.59;;;24.92;33.86
9746;BME280;4912;50.836;12.958;2024-02-16T12:55:45;97657.47;;;24.98;33.55
9746;BME280;4912;50.836;12.958;2024-02-16T12:58:16;97652.41;;;24.66;34.45
9746;BME280;4912;50.836;12.958;2024-02-16T13:00:50;97654.53;;;24.50;34.77
9746;BME280;4912;50.836;12.958;2024-02-16T13:03:24;97652.78;;;24.77;34.56
9746;BME280;4912;50.836;12.958;2024-02-16T13:05:54;97657.44;;;25.13;35.26
9746;BME280;4912;50.836;12.958;2024-02-16T13:08:25;97652.84;;;25.25;34.82
9746;BME280;4912;50.836;12.958;2024-02-16T13:10:55;97657.88;;;25.42;35.24
9746;BME280;4912;50.836;12.958;2024-02-16T13:13:26;97661.56;;;25.67;34.41
9746;BME280;4912;50.836;12.958;2024-02-16T13:15:59;97669.06;;;25.80;33.99
9746;BME280;4912;50.836;12.958;2024-02-16T13:18:31;97656.81;;;25.69;33.72
9746;BME280;4912;50.836;12.958;2024-02-16T13:21:01;97660.94;;;26.08;33.13
9746;BME280;4912;50.836;12.958;2024-02-16T13:23:32;97659.25;;;26.05;32.86
9746;BME280;4912;50.836;12.958;2024-02-16T13:26:02;97654.94;;;25.24;34.09
9746;BME280;4912;50.836;12.958;2024-02-16T13:28:34;97653.94;;;24.59;35.49
9746;BME280;4912;50.836;12.958;2024-02-16T13:31:08;97658.88;;;24.21;36.42
9746;BME280;4912;50.836;12.958;2024-02-16T13:33:39;97655.97;;;23.90;37.38
9746;BME280;4912;50.836;12.958;2024-02-16T13:36:11;97655.38;;;23.77;37.03
9746;BME280;4912;50.836;12.958;2024-02-16T13:38:43;97657.00;;;23.57;37.94
9746;BME280;4912;50.836;12.958;2024-02-16T13:41:14;97659.56;;;23.32;38.29